createdAt,value
2022-12-29T00:49:34.289Z,0.53
2022-12-29T00:51:33.911Z,0.53
2022-12-29T00:52:33.888Z,0.53
2022-12-29T00:53:33.865Z,0.52
2022-12-29T00:54:33.824Z,0.53
2022-12-29T00:55:33.805Z,0.53
2022-12-29T00:56:33.784Z,0.52
2022-12-29T00:57:33.751Z,0.52
2022-12-29T00:58:33.721Z,0.53
2022-12-29T00:59:33.704Z,0.52
2022-12-29T01:00:33.706Z,0.52
2022-12-29T01:01:33.750Z,0.52
2022-12-29T01:02:33.756Z,0.52
2022-12-29T01:03:33.586Z,0.52
2022-12-29T01:04:33.565Z,0.52
2022-12-29T01:05:33.546Z,0.52
2022-12-29T01:06:33.502Z,0.52
2022-12-29T01:07:33.491Z,0.52
2022-12-29T01:08:33.436Z,0.52
2022-12-29T01:09:33.412Z,0.52
2022-12-29T01:10:33.374Z,0.52
2022-12-29T01:11:33.329Z,0.52
2022-12-29T01:12:33.294Z,0.52
2022-12-29T01:13:33.291Z,0.53
2022-12-29T01:14:33.237Z,0.52
2022-12-29T01:15:33.227Z,0.52
2022-12-29T01:16:33.203Z,0.52
2022-12-29T01:17:33.164Z,0.52
2022-12-29T01:18:33.140Z,0.52
2022-12-29T01:19:33.087Z,0.53
2022-12-29T01:20:33.049Z,0.52
2022-12-29T01:21:33.028Z,0.52
2022-12-29T01:22:32.990Z,0.52
2022-12-29T01:23:32.980Z,0.52
2022-12-29T01:24:32.935Z,0.52
2022-12-29T01:25:32.893Z,0.52
2022-12-29T01:26:32.880Z,0.52
2022-12-29T01:27:32.853Z,0.52
2022-12-29T01:28:32.815Z,0.52
2022-12-29T01:29:32.762Z,0.53
2022-12-29T01:30:32.733Z,0.52
2022-12-29T01:31:32.786Z,0.52
2022-12-29T01:32:32.694Z,0.52
2022-12-29T01:33:32.640Z,0.52
2022-12-29T01:34:32.598Z,0.52
2022-12-29T01:35:32.582Z,0.52
2022-12-29T01:36:32.581Z,0.51
2022-12-29T01:37:32.508Z,0.52
2022-12-29T01:38:32.502Z,0.53
2022-12-29T01:39:32.454Z,0.51
2022-12-29T01:40:32.423Z,0.52
2022-12-29T01:41:32.433Z,0.51
2022-12-29T01:42:32.390Z,0.52
2022-12-29T01:43:32.331Z,0.51
2022-12-29T01:44:32.301Z,0.52
2022-12-29T01:45:32.290Z,0.52
2022-12-29T01:46:32.233Z,0.52
2022-12-29T01:47:32.212Z,0.52
2022-12-29T01:48:32.164Z,0.51
2022-12-29T01:49:32.160Z,0.51
2022-12-29T01:50:32.109Z,0.52
2022-12-29T01:51:32.075Z,0.52
2022-12-29T01:52:32.036Z,0.52
2022-12-29T01:53:32.042Z,0.51
2022-12-29T01:54:31.988Z,0.51
2022-12-29T01:55:31.963Z,0.52
2022-12-29T01:56:31.937Z,0.52
2022-12-29T01:57:31.895Z,0.52
2022-12-29T01:58:31.854Z,0.52
2022-12-29T01:59:31.837Z,0.51
2022-12-29T02:00:31.808Z,0.51
2022-12-29T02:01:31.867Z,0.52
2022-12-29T02:02:33.454Z,0.51
2022-12-29T02:03:31.782Z,0.51
2022-12-29T02:04:31.704Z,0.51
2022-12-29T02:05:31.654Z,0.51
2022-12-29T02:06:31.643Z,0.52
2022-12-29T02:07:31.573Z,0.51
2022-12-29T02:08:31.548Z,0.51
2022-12-29T02:09:31.543Z,0.52
2022-12-29T02:10:31.490Z,0.51
2022-12-29T02:11:31.479Z,0.51
2022-12-29T02:12:31.436Z,0.51
2022-12-29T02:13:31.413Z,0.51
2022-12-29T02:14:31.375Z,0.51
2022-12-29T02:15:31.348Z,0.51
2022-12-29T02:16:31.371Z,0.51
2022-12-29T02:17:31.284Z,0.52
2022-12-29T02:18:31.258Z,0.51
2022-12-29T02:19:31.234Z,0.51
2022-12-29T02:20:31.194Z,0.51
2022-12-29T02:21:31.158Z,0.51
2022-12-29T02:22:31.116Z,0.51
2022-12-29T02:23:31.106Z,0.51
2022-12-29T02:24:31.076Z,0.52
2022-12-29T04:12:27.721Z,0.51
2022-12-29T04:22:27.409Z,0.52
2022-12-29T04:24:27.349Z,0.51
2022-12-29T04:25:27.326Z,0.52
2022-12-29T04:26:27.293Z,0.51
2022-12-29T04:27:27.266Z,0.52
2022-12-29T04:28:27.239Z,0.51
2022-12-29T04:29:27.194Z,0.52
2022-12-29T04:30:27.163Z,0.52
2022-12-29T04:31:27.163Z,0.52
2022-12-29T04:32:27.099Z,0.51
2022-12-29T04:33:27.058Z,0.51
2022-12-29T04:34:27.030Z,0.51
2022-12-29T04:35:26.995Z,0.51
2022-12-29T04:36:30.101Z,0.52
2022-12-29T04:37:26.947Z,0.52
2022-12-29T04:38:26.899Z,0.51
2022-12-29T04:39:26.871Z,0.51
2022-12-29T04:40:26.848Z,0.52
2022-12-29T04:41:26.830Z,0.51
2022-12-29T04:42:26.780Z,0.52
2022-12-29T04:43:26.752Z,0.51
2022-12-29T04:44:26.708Z,0.52
2022-12-29T04:45:26.682Z,0.51
2022-12-29T04:46:26.705Z,0.52
2022-12-29T04:47:26.627Z,0.52
2022-12-29T04:48:26.584Z,0.51
2022-12-29T04:49:26.564Z,0.52
2022-12-29T04:50:26.515Z,0.52
2022-12-29T04:51:26.471Z,0.52
2022-12-29T04:52:26.467Z,0.52
2022-12-29T04:53:26.415Z,0.52
2022-12-29T04:54:26.383Z,0.51
2022-12-29T04:55:26.385Z,0.52
2022-12-29T04:56:26.332Z,0.52
2022-12-29T04:57:26.310Z,0.51
2022-12-29T04:58:26.274Z,0.51
2022-12-29T04:59:26.245Z,0.52
2022-12-29T05:00:26.211Z,0.52
2022-12-29T05:01:26.234Z,0.52
2022-12-29T05:02:26.319Z,0.52
2022-12-29T05:03:26.143Z,0.51
2022-12-29T05:04:26.077Z,0.52
2022-12-29T05:05:26.061Z,0.51
2022-12-29T05:06:26.020Z,0.52
2022-12-29T05:07:25.987Z,0.51
2022-12-29T05:08:28.374Z,0.52
2022-12-29T05:09:25.914Z,0.52
2022-12-29T05:10:25.884Z,0.52
2022-12-29T05:11:25.872Z,0.52
2022-12-29T05:12:25.815Z,0.51
2022-12-29T05:13:25.764Z,0.52
2022-12-29T05:14:25.739Z,0.52
2022-12-29T05:15:25.701Z,0.52
2022-12-29T05:16:25.750Z,0.52
2022-12-29T05:17:25.696Z,0.52
2022-12-29T05:18:25.629Z,0.51
2022-12-29T05:19:25.594Z,0.52
2022-12-29T05:20:25.582Z,0.52
2022-12-29T05:21:25.553Z,0.52
2022-12-29T05:22:25.548Z,0.52
2022-12-29T05:23:25.495Z,0.51
2022-12-29T05:24:25.459Z,0.53
2022-12-29T05:25:25.452Z,0.51
2022-12-29T05:26:25.412Z,0.51
2022-12-29T05:27:25.417Z,0.51
2022-12-29T05:28:25.375Z,0.51
2022-12-29T05:29:25.320Z,0.52
2022-12-29T05:30:25.290Z,0.52
2022-12-29T05:31:25.318Z,0.52
2022-12-29T05:32:25.252Z,0.52
2022-12-29T05:33:25.219Z,0.52
2022-12-29T05:34:25.204Z,0.52
2022-12-29T05:35:25.161Z,0.51
2022-12-29T05:36:25.149Z,0.52
2022-12-29T05:37:25.101Z,0.52
2022-12-29T05:38:25.070Z,0.52
2022-12-29T05:39:25.036Z,0.52
2022-12-29T05:40:25.029Z,0.51
2022-12-29T05:41:24.958Z,0.52
2022-12-29T05:42:24.931Z,0.50
2022-12-29T05:43:24.904Z,0.51
2022-12-29T05:44:24.876Z,0.51
2022-12-29T05:45:24.831Z,0.51
2022-12-29T05:46:24.898Z,0.52
2022-12-29T05:47:24.779Z,0.52
2022-12-29T05:48:24.757Z,0.51
2022-12-29T05:49:24.722Z,0.51
2022-12-29T05:50:24.730Z,0.51
2022-12-29T05:51:24.651Z,0.51
2022-12-29T05:52:24.613Z,0.51
2022-12-29T05:53:24.601Z,0.52
2022-12-29T05:54:24.554Z,0.51
2022-12-29T05:55:24.515Z,0.50
2022-12-29T05:56:24.478Z,0.51
2022-12-29T05:57:24.459Z,0.51
2022-12-29T05:58:24.437Z,0.52
2022-12-29T05:59:24.390Z,0.51
2022-12-29T06:00:24.386Z,0.52
2022-12-29T06:01:24.420Z,0.51
2022-12-29T06:02:24.568Z,0.51
2022-12-29T06:03:24.399Z,0.51
2022-12-29T06:04:24.226Z,0.52
2022-12-29T06:05:24.206Z,0.51
2022-12-29T06:06:24.177Z,0.52
2022-12-29T06:07:24.128Z,0.52
2022-12-29T06:08:24.108Z,0.51
2022-12-29T06:09:24.087Z,0.51
2022-12-29T06:10:24.039Z,0.52
2022-12-29T06:11:24.004Z,0.52
2022-12-29T06:12:23.971Z,0.52
2022-12-29T06:13:23.957Z,0.51
2022-12-29T06:14:23.940Z,0.51
2022-12-29T06:15:23.881Z,0.52
2022-12-29T06:16:23.888Z,0.52
2022-12-29T06:17:23.801Z,0.51
2022-12-29T06:18:23.777Z,0.51
2022-12-29T06:19:23.747Z,0.51
2022-12-29T06:20:23.705Z,0.51
2022-12-29T06:21:23.683Z,0.50
2022-12-29T06:22:23.664Z,0.51
2022-12-29T06:23:23.635Z,0.51
2022-12-29T06:24:23.588Z,0.51
2022-12-29T06:25:23.580Z,0.52
2022-12-29T06:26:23.536Z,0.52
2022-12-29T06:27:23.510Z,0.51
2022-12-29T06:28:23.509Z,0.51
2022-12-29T06:29:23.444Z,0.52
2022-12-29T06:30:23.425Z,0.51
2022-12-29T06:31:23.441Z,0.51
2022-12-29T06:32:23.363Z,0.51
2022-12-29T06:33:23.372Z,0.52
2022-12-29T06:34:23.338Z,0.51
2022-12-29T06:35:23.285Z,0.51
2022-12-29T06:36:23.253Z,0.52
2022-12-29T06:37:23.249Z,0.51
2022-12-29T06:38:23.207Z,0.51
2022-12-29T06:39:23.184Z,0.51
2022-12-29T06:40:23.202Z,0.51
2022-12-29T06:41:27.010Z,0.52
2022-12-29T06:42:24.102Z,0.52
2022-12-29T06:43:23.084Z,0.52
2022-12-29T06:44:23.048Z,0.52
2022-12-29T06:45:23.032Z,0.52
2022-12-29T06:46:23.071Z,0.52
2022-12-29T06:47:22.949Z,0.52
2022-12-29T06:48:22.931Z,0.51
2022-12-29T06:49:22.898Z,0.51
2022-12-29T06:50:22.861Z,0.52
2022-12-29T06:51:22.802Z,0.50
2022-12-29T06:52:22.773Z,0.51
2022-12-29T06:53:22.757Z,0.51
2022-12-29T06:54:22.716Z,0.51
2022-12-29T06:55:22.707Z,0.51
2022-12-29T06:56:22.641Z,0.52
2022-12-29T06:57:22.624Z,0.52
2022-12-29T06:58:22.579Z,0.51
2022-12-29T06:59:22.524Z,0.50
2022-12-29T07:00:23.167Z,0.51
2022-12-29T07:01:22.547Z,0.52
2022-12-29T07:02:22.508Z,0.51
2022-12-29T07:03:22.432Z,0.52
2022-12-29T07:04:22.368Z,0.52
2022-12-29T07:05:22.320Z,0.52
2022-12-29T07:06:22.284Z,0.51
2022-12-29T07:07:22.225Z,0.51
2022-12-29T07:08:22.241Z,0.52
2022-12-29T07:09:22.194Z,0.52
2022-12-29T07:10:22.135Z,0.52
2022-12-29T07:11:22.090Z,0.52
2022-12-29T07:12:22.052Z,0.52
2022-12-29T07:13:22.051Z,0.52
2022-12-29T07:14:22.020Z,0.52
2022-12-29T07:15:21.957Z,0.52
2022-12-29T07:16:22.066Z,0.51
2022-12-29T07:17:21.845Z,0.51
2022-12-29T07:18:21.832Z,0.51
2022-12-29T07:19:21.805Z,0.52
2022-12-29T07:20:26.476Z,0.52
2022-12-29T07:21:21.721Z,0.52
2022-12-29T07:22:21.674Z,0.52
2022-12-29T07:23:21.651Z,0.52
2022-12-29T07:24:21.611Z,0.52
2022-12-29T07:25:21.586Z,0.51
2022-12-29T07:26:21.557Z,0.52
2022-12-29T07:27:21.529Z,0.51
2022-12-29T07:28:21.502Z,0.52
2022-12-29T07:29:21.480Z,0.52
2022-12-29T07:30:21.419Z,0.51
2022-12-29T07:31:21.455Z,0.52
2022-12-29T07:32:21.428Z,0.51
2022-12-29T07:33:21.335Z,0.51
2022-12-29T07:34:21.296Z,0.51
2022-12-29T07:35:21.271Z,0.51
2022-12-29T07:36:21.243Z,0.51
2022-12-29T07:37:21.214Z,0.51
2022-12-29T07:38:21.167Z,0.51
2022-12-29T07:39:21.131Z,0.51
2022-12-29T07:40:21.096Z,0.51
2022-12-29T10:41:17.508Z,0.51
2022-12-29T10:42:17.461Z,0.51
2022-12-29T10:43:21.162Z,0.51
2022-12-29T10:44:17.315Z,0.51
2022-12-29T10:45:17.278Z,0.50
2022-12-29T10:46:17.258Z,0.51
2022-12-29T10:47:17.188Z,0.51
2022-12-29T10:48:17.132Z,0.51
2022-12-29T10:49:21.485Z,0.51
2022-12-29T10:50:18.054Z,0.51
2022-12-29T10:51:16.948Z,0.51
2022-12-29T10:52:16.944Z,0.51
2022-12-29T10:53:16.861Z,0.52
2022-12-29T10:54:16.827Z,0.51
2022-12-29T10:55:16.771Z,0.51
2022-12-29T10:56:16.702Z,0.51
2022-12-29T10:57:16.696Z,0.51
2022-12-29T10:58:16.598Z,0.51
2022-12-29T10:59:16.537Z,0.51
2022-12-29T11:00:16.628Z,0.51
2022-12-29T11:01:16.509Z,0.52
2022-12-29T11:02:16.491Z,0.51
2022-12-29T11:03:16.461Z,0.51
2022-12-29T11:04:16.305Z,0.50
2022-12-29T11:05:16.231Z,0.51
2022-12-29T11:06:16.179Z,0.51
2022-12-29T11:07:16.961Z,0.52
2022-12-29T11:08:16.103Z,0.51
2022-12-29T11:09:16.001Z,0.51
2022-12-29T11:10:16.093Z,0.51
2022-12-29T11:11:15.903Z,0.52
2022-12-29T11:12:15.846Z,0.51
2022-12-29T11:13:15.818Z,0.51
2022-12-29T11:14:15.735Z,0.51
2022-12-29T11:15:15.669Z,0.52
2022-12-29T11:16:15.724Z,0.51
2022-12-29T11:17:15.551Z,0.52
2022-12-29T11:18:15.501Z,0.52
2022-12-29T12:09:12.699Z,0.50
2022-12-29T12:17:12.252Z,0.51
2022-12-29T12:29:11.646Z,0.51
2022-12-29T12:32:11.511Z,0.51
2022-12-29T12:33:11.460Z,0.52
2022-12-29T12:34:11.416Z,0.52
2022-12-29T12:35:14.486Z,0.53
2022-12-29T12:37:11.228Z,0.52
2022-12-29T12:38:11.202Z,0.52
2022-12-29T12:39:11.143Z,0.53
2022-12-29T14:42:03.709Z,0.54
2022-12-29T15:07:02.514Z,0.55
2022-12-29T15:10:02.366Z,0.54
2022-12-29T15:11:02.310Z,0.52
2022-12-29T15:12:02.280Z,0.52
2022-12-29T15:13:02.215Z,0.53
2022-12-29T15:14:02.195Z,0.52
2022-12-29T15:15:02.098Z,0.53
2022-12-29T15:16:02.130Z,0.53
2022-12-29T15:17:02.100Z,0.55
2022-12-29T15:18:01.975Z,0.56
2022-12-29T15:19:01.928Z,0.54
2022-12-29T15:20:01.980Z,0.57
2022-12-29T15:21:01.850Z,0.56
2022-12-29T15:22:01.810Z,0.56
2022-12-29T15:23:01.770Z,0.56
2022-12-29T15:24:01.725Z,0.57
2022-12-29T15:25:01.687Z,0.56
2022-12-29T15:26:01.662Z,0.57
2022-12-29T15:27:01.618Z,0.57
2022-12-29T15:28:01.576Z,0.55
2022-12-29T15:29:01.517Z,0.57
2022-12-29T15:30:01.476Z,0.56
2022-12-29T15:31:01.423Z,0.56
2022-12-29T15:32:01.485Z,0.56
2022-12-29T15:33:01.352Z,0.56
2022-12-29T15:34:01.350Z,0.57
2022-12-29T15:35:01.287Z,0.56
2022-12-29T15:36:01.218Z,0.57
2022-12-29T15:37:01.157Z,0.57
2022-12-29T15:38:01.167Z,0.57
2022-12-29T15:39:01.095Z,0.57
2022-12-29T17:28:56.774Z,0.63
2022-12-29T17:29:56.697Z,0.62
2022-12-29T17:30:56.747Z,0.63
2022-12-29T17:31:56.638Z,0.63
2022-12-29T17:32:56.636Z,0.63
2022-12-29T17:33:56.588Z,0.63
2022-12-29T17:34:56.551Z,0.63
2022-12-29T17:35:56.508Z,0.64
2022-12-29T17:36:56.478Z,0.63
2022-12-29T17:37:56.437Z,0.63
2022-12-29T17:38:56.428Z,0.63
2022-12-29T17:39:56.386Z,0.63
2022-12-29T17:40:56.354Z,0.63
2022-12-29T17:41:56.301Z,0.63
2022-12-29T17:42:56.268Z,0.63
2022-12-29T17:43:56.211Z,0.64
2022-12-29T17:44:56.181Z,0.64
2022-12-29T17:45:56.331Z,0.64
2022-12-29T17:46:56.093Z,0.63
2022-12-29T17:47:56.052Z,0.63
2022-12-29T17:48:56.017Z,0.63
2022-12-29T17:49:55.986Z,0.64
2022-12-29T17:50:55.950Z,0.64
2022-12-29T17:51:55.892Z,0.64
2022-12-29T17:53:00.645Z,0.64
2022-12-29T17:53:56.839Z,0.64
2022-12-29T17:54:55.830Z,0.64
2022-12-29T17:55:55.735Z,0.64
2022-12-29T17:56:55.710Z,0.64
2022-12-29T17:57:55.677Z,0.64
2022-12-29T17:58:55.666Z,0.64
2022-12-29T17:59:55.630Z,0.66
2022-12-29T18:00:55.580Z,0.65
2022-12-29T18:01:55.649Z,0.65
2022-12-29T18:02:55.619Z,0.65
2022-12-29T18:03:55.532Z,0.65
2022-12-29T18:04:55.402Z,0.65
2022-12-29T18:05:55.351Z,0.66
2022-12-29T18:06:55.318Z,0.66
2022-12-29T18:07:55.273Z,0.66
2022-12-29T18:08:55.239Z,0.66
2022-12-29T18:09:55.223Z,0.65
2022-12-29T18:10:55.180Z,0.65
2022-12-29T18:11:55.120Z,0.66
2022-12-29T18:12:55.072Z,0.66
2022-12-29T18:13:55.037Z,0.66
2022-12-29T18:14:54.978Z,0.67
2022-12-29T18:15:55.039Z,0.67
2022-12-29T18:16:54.912Z,0.67
2022-12-29T18:17:54.866Z,0.66
2022-12-29T18:18:54.794Z,0.67
2022-12-29T18:19:54.813Z,0.67
2022-12-29T18:20:54.711Z,0.67
2022-12-29T18:21:54.669Z,0.67
2022-12-29T18:22:54.652Z,0.67
2022-12-29T18:23:54.590Z,0.68
2022-12-29T18:24:54.553Z,0.67
2022-12-29T18:25:54.512Z,0.68
2022-12-29T18:26:54.483Z,0.67
2022-12-29T18:27:54.454Z,0.69
2022-12-29T18:28:54.398Z,0.68
2022-12-29T18:29:54.359Z,0.68
2022-12-29T18:30:54.358Z,0.70
2022-12-29T18:31:54.366Z,0.69
2022-12-29T18:32:54.229Z,0.69
2022-12-29T18:33:54.175Z,0.69
2022-12-29T18:34:54.160Z,0.69
2022-12-29T18:35:54.126Z,0.69
2022-12-29T18:36:54.101Z,0.69
2022-12-29T18:37:54.054Z,0.69
2022-12-29T18:38:54.031Z,0.69
2022-12-29T18:39:54.006Z,0.70
2022-12-29T18:40:53.951Z,0.70
2022-12-29T18:41:53.899Z,0.70
2022-12-29T18:42:53.878Z,0.70
2022-12-29T18:43:53.864Z,0.70
2022-12-29T18:44:53.825Z,0.70
2022-12-29T18:45:53.770Z,0.70
2022-12-29T18:46:53.782Z,0.70
2022-12-29T18:47:53.694Z,0.71
2022-12-29T18:48:53.650Z,0.72
2022-12-29T18:49:53.606Z,0.70
2022-12-29T18:50:53.570Z,0.71
2022-12-29T18:51:53.518Z,0.72
2022-12-29T18:52:54.495Z,0.71
2022-12-29T18:53:53.630Z,0.73
2022-12-29T18:54:53.583Z,0.72
2022-12-29T18:55:53.557Z,0.72
2022-12-29T18:56:53.504Z,0.72
2022-12-29T18:57:53.469Z,0.72
2022-12-29T18:58:53.497Z,0.73
2022-12-29T18:59:53.518Z,0.73
2022-12-29T19:00:53.458Z,0.73
2022-12-29T19:01:53.421Z,0.73
2022-12-29T19:02:53.483Z,0.72
2022-12-29T19:03:53.435Z,0.73
2022-12-29T19:04:57.704Z,0.74
2022-12-29T19:05:54.437Z,0.74
2022-12-29T19:06:53.401Z,0.74
2022-12-29T19:07:53.359Z,0.74
2022-12-29T19:08:53.340Z,0.73
2022-12-29T19:09:53.319Z,0.75
2022-12-29T19:10:53.245Z,0.75
2022-12-29T19:11:53.189Z,0.75
2022-12-29T19:12:53.152Z,0.74
2022-12-29T19:13:53.107Z,0.74
2022-12-29T19:14:53.072Z,0.74
2022-12-29T19:15:53.095Z,0.75
2022-12-29T19:16:53.004Z,0.74
2022-12-29T19:18:24.088Z,0.75
2022-12-29T19:19:08.316Z,0.75
2022-12-29T19:19:53.870Z,0.76
2022-12-29T19:20:52.826Z,0.76
2022-12-29T19:21:52.763Z,0.76
2022-12-29T19:22:52.730Z,0.77
2022-12-29T19:23:52.678Z,0.76
2022-12-29T19:24:59.653Z,0.75
2022-12-29T19:25:53.627Z,0.75
2022-12-29T19:26:52.558Z,0.75
2022-12-29T19:27:52.521Z,0.75
2022-12-29T19:28:52.475Z,0.75
2022-12-29T19:29:52.430Z,0.75
2022-12-29T19:30:52.938Z,0.76
2022-12-29T19:31:52.363Z,0.76
2022-12-29T19:32:52.291Z,0.77
2022-12-29T19:33:52.251Z,0.77
2022-12-29T19:34:52.213Z,0.77
2022-12-29T19:35:52.210Z,0.78
2022-12-29T19:36:52.139Z,0.77
2022-12-29T19:37:52.083Z,0.76
2022-12-29T19:38:52.033Z,0.77
2022-12-29T19:39:52.000Z,0.78
2022-12-29T19:40:51.964Z,0.77
2022-12-29T19:41:51.929Z,0.77
2022-12-29T19:42:51.879Z,0.78
2022-12-29T19:43:51.838Z,0.76
2022-12-29T19:44:51.799Z,0.78
2022-12-29T19:45:51.753Z,0.78
2022-12-29T19:46:51.778Z,0.77
2022-12-29T19:47:51.672Z,0.78
2022-12-29T19:48:51.624Z,0.77
2022-12-29T19:49:51.578Z,0.77
2022-12-29T19:50:51.539Z,0.78
2022-12-29T19:51:51.505Z,0.79
2022-12-29T19:52:54.214Z,0.77
2022-12-29T19:53:52.415Z,0.77
2022-12-29T19:54:51.364Z,0.77
2022-12-29T19:55:51.300Z,0.77
2022-12-29T19:56:51.269Z,0.79
2022-12-29T19:57:51.250Z,0.77
2022-12-29T19:58:51.199Z,0.79
2022-12-29T19:59:51.117Z,0.78
2022-12-29T20:00:51.099Z,0.78
2022-12-29T23:06:43.739Z,0.90
2022-12-29T23:07:43.675Z,0.90
2022-12-29T23:08:43.639Z,0.90
2022-12-29T23:09:43.595Z,0.90
2022-12-29T23:10:43.563Z,0.91
2022-12-29T23:11:43.521Z,0.91
2022-12-29T23:12:43.488Z,0.90
2022-12-29T23:13:43.454Z,0.89
2022-12-29T23:14:43.402Z,0.91
2022-12-29T23:15:43.441Z,0.89
2022-12-29T23:16:43.440Z,0.91
2022-12-29T23:17:43.301Z,0.91
2022-12-29T23:18:43.263Z,0.91
2022-12-29T23:19:43.229Z,0.90
2022-12-29T23:20:43.202Z,0.90
2022-12-29T23:21:43.153Z,0.92
2022-12-29T23:22:43.109Z,0.90
2022-12-29T23:23:48.867Z,0.92
2022-12-29T23:25:43.032Z,0.91
2022-12-29T23:26:42.980Z,0.91
2022-12-29T23:27:42.948Z,0.91
2022-12-29T23:28:42.896Z,0.91
2022-12-29T23:29:42.860Z,0.91
2022-12-29T23:30:42.831Z,0.91
2022-12-29T23:31:42.890Z,0.90
2022-12-29T23:32:42.737Z,0.89
2022-12-29T23:33:42.694Z,0.91
2022-12-29T23:34:42.676Z,0.91
2022-12-29T23:35:42.630Z,0.90
2022-12-29T23:36:42.572Z,0.91
2022-12-29T23:37:42.533Z,0.89
2022-12-29T23:38:42.509Z,0.89
2022-12-29T23:39:42.445Z,0.90
2022-12-29T23:40:42.429Z,0.90
2022-12-29T23:41:42.386Z,0.89
2022-12-29T23:42:42.376Z,0.89
2022-12-29T23:43:42.309Z,0.89
2022-12-29T23:44:42.275Z,0.89
2022-12-29T23:45:47.404Z,0.89
2022-12-29T23:46:43.257Z,0.89
2022-12-29T23:47:42.144Z,0.89
2022-12-29T23:48:42.105Z,0.89
2022-12-29T23:49:42.065Z,0.89
2022-12-29T23:50:42.066Z,0.91
2022-12-29T23:51:41.998Z,0.90
2022-12-29T23:52:41.948Z,0.89
2022-12-29T23:53:41.895Z,0.88
2022-12-29T23:54:41.858Z,0.87
2022-12-29T23:55:41.830Z,0.89
2022-12-29T23:56:41.782Z,0.88
2022-12-29T23:57:41.732Z,0.89
2022-12-29T23:58:41.702Z,0.87
2022-12-29T23:59:41.655Z,0.88
